Wetterstation Vordersexau
Wetterdaten: Woche 10.06.13 - 16.06.13 (KW24)
Datum Zeit Temp. A. Feuchte A. Luftdruck Regen Wind Richtung Taupunkt Windchill Windben
10.06.2013 00:00 16,8 C 74 % 1006,5 hPa 0,0 l/m 11,0 km/h W-NW 12,1 C 14,7 C 6,1 km/h
10.06.2013 01:00 14,5 C 82 % 1007,3 hPa 0,0 l/m 7,1 km/h W-NW 11,5 C 14,1 C 4,0 km/h
10.06.2013 02:00 14,1 C 82 % 1007,4 hPa 0,0 l/m 9,7 km/h W-NW 11,1 C 12,3 C 5,4 km/h
10.06.2013 03:00 14,2 C 80 % 1007,5 hPa 0,0 l/m 6,5 km/h W 10,8 C 14,2 C 3,6 km/h
10.06.2013 04:00 14,0 C 80 % 1007,7 hPa 0,0 l/m 3,2 km/h NW 10,6 C 14,0 C 1,8 km/h
10.06.2013 05:00 13,8 C 81 % 1007,6 hPa 0,0 l/m 17,5 km/h NW 10,6 C 8,9 C 9,7 km/h
10.06.2013 06:00 13,9 C 81 % 1007,5 hPa 0,0 l/m 1,3 km/h W 10,7 C 13,9 C 0,7 km/h
10.06.2013 07:00 14,8 C 79 % 1008,0 hPa 0,0 l/m 18,1 km/h W 11,2 C 10,0 C 10,1 km/h
10.06.2013 08:00 14,6 C 78 % 1008,6 hPa 0,0 l/m 5,2 km/h W 10,8 C 14,6 C 2,9 km/h
10.06.2013 09:00 17,0 C 74 % 1008,9 hPa 0,0 l/m 2,6 km/h W 12,3 C 17,0 C 1,4 km/h
10.06.2013 10:00 18,2 C 70 % 1009,1 hPa 0,0 l/m 6,5 km/h SW 12,6 C 18,2 C 3,6 km/h
10.06.2013 11:00 17,4 C 70 % 1009,0 hPa 0,0 l/m 14,3 km/h W 11,9 C 14,3 C 7,9 km/h
10.06.2013 12:00 17,0 C 74 % 1009,3 hPa 0,0 l/m 0,0 km/h SO 12,3 C 17,0 C 0,0 km/h
10.06.2013 13:00 14,5 C 81 % 1009,7 hPa 10,9 l/m 0,0 km/h S 11,3 C 14,5 C 0,0 km/h
10.06.2013 14:00 16,1 C 82 % 1009,8 hPa 0,5 l/m 1,3 km/h S-SO 13,0 C 16,1 C 0,7 km/h
10.06.2013 15:00 17,5 C 80 % 1010,2 hPa 0,0 l/m 0,0 km/h W 14,0 C 17,5 C 0,0 km/h
10.06.2013 16:00 19,1 C 74 % 1010,1 hPa 0,0 l/m 2,6 km/h N-NW 14,4 C 19,1 C 1,4 km/h
10.06.2013 17:00 20,5 C 69 % 1010,1 hPa 0,0 l/m 13,6 km/h NW 14,6 C 18,2 C 7,6 km/h
10.06.2013 18:00 18,4 C 71 % 1010,4 hPa 0,0 l/m 5,2 km/h O-SO 13,0 C 18,4 C 2,9 km/h
10.06.2013 19:00 16,9 C 75 % 1010,9 hPa 0,0 l/m 0,0 km/h NO 12,4 C 16,9 C 0,0 km/h
10.06.2013 20:00 15,8 C 78 % 1011,4 hPa 0,0 l/m 0,0 km/h O-NO 12,0 C 15,8 C 0,0 km/h
10.06.2013 21:00 15,1 C 80 % 1012,0 hPa 0,0 l/m 0,0 km/h N-NW 11,7 C 15,1 C 0,0 km/h
10.06.2013 22:00 14,6 C 81 % 1012,7 hPa 0,0 l/m 0,0 km/h SW 11,4 C 14,6 C 0,0 km/h
10.06.2013 23:00 14,3 C 82 % 1013,1 hPa 0,0 l/m 0,0 km/h SW 11,3 C 14,3 C 0,0 km/h
11.06.2013 00:00 14,1 C 82 % 1013,6 hPa 0,0 l/m 0,0 km/h S-SW 11,1 C 14,1 C 0,0 km/h
11.06.2013 01:00 13,8 C 81 % 1013,9 hPa 0,5 l/m 0,0 km/h S 10,6 C 13,8 C 0,0 km/h
11.06.2013 02:00 13,4 C 81 % 1013,9 hPa 2,6 l/m 0,0 km/h NO 10,2 C 13,4 C 0,0 km/h
11.06.2013 03:00 13,4 C 78 % 1013,9 hPa 1,0 l/m 0,0 km/h W 9,6 C 13,4 C 0,0 km/h
11.06.2013 04:00 13,2 C 76 % 1014,0 hPa 1,0 l/m 0,0 km/h S 9,1 C 13,2 C 0,0 km/h
11.06.2013 05:00 13,1 C 75 % 1014,3 hPa 3,6 l/m 3,2 km/h S-SO 8,8 C 13,1 C 1,8 km/h
11.06.2013 06:00 13,1 C 73 % 1014,2 hPa 1,6 l/m 0,0 km/h O 8,4 C 13,1 C 0,0 km/h
11.06.2013 07:00 13,6 C 72 % 1014,8 hPa 0,0 l/m 0,0 km/h O 8,6 C 13,6 C 0,0 km/h
11.06.2013 08:00 13,9 C 71 % 1015,1 hPa 0,0 l/m 0,0 km/h O 8,7 C 13,9 C 0,0 km/h
11.06.2013 09:00 15,5 C 69 % 1015,5 hPa 0,5 l/m 0,0 km/h NO 9,8 C 15,5 C 0,0 km/h
11.06.2013 10:00 19,2 C 81 % 1015,7 hPa 0,0 l/m 0,0 km/h SO 15,9 C 19,2 C 0,0 km/h
11.06.2013 11:00 25,4 C 59 % 1015,9 hPa 0,0 l/m 0,0 km/h NO 16,8 C 25,4 C 0,0 km/h
11.06.2013 12:00 23,9 C 52 % 1015,9 hPa 0,0 l/m 0,0 km/h O-SO 13,4 C 23,9 C 0,0 km/h
11.06.2013 13:00 23,9 C 53 % 1015,8 hPa 0,0 l/m 0,0 km/h S 13,7 C 23,9 C 0,0 km/h
11.06.2013 14:00 25,3 C 48 % 1015,8 hPa 0,0 l/m 0,0 km/h N-NW 13,5 C 25,3 C 0,0 km/h
11.06.2013 15:00 27,4 C 42 % 1015,4 hPa 0,0 l/m 3,2 km/h NW 13,3 C 27,4 C 1,8 km/h
11.06.2013 16:00 30,4 C 34 % 1015,3 hPa 0,0 l/m 0,0 km/h N-NO 12,7 C 30,4 C 0,0 km/h
11.06.2013 17:00 31,8 C 31 % 1015,3 hPa 0,0 l/m 0,0 km/h S 12,6 C 31,8 C 0,0 km/h
11.06.2013 18:00 32,3 C 29 % 1015,2 hPa 0,0 l/m 6,5 km/h N 12,0 C 32,3 C 3,6 km/h
11.06.2013 19:00 27,2 C 35 % 1015,4 hPa 0,0 l/m 1,3 km/h O-SO 10,4 C 27,2 C 0,7 km/h
11.06.2013 20:00 20,4 C 53 % 1015,6 hPa 0,0 l/m 0,0 km/h S-SO 10,5 C 20,4 C 0,0 km/h
11.06.2013 21:00 15,9 C 67 % 1015,9 hPa 0,0 l/m 0,0 km/h S-SO 9,8 C 15,9 C 0,0 km/h
11.06.2013 22:00 13,5 C 75 % 1016,6 hPa 0,0 l/m 0,0 km/h S-SO 9,2 C 13,5 C 0,0 km/h
11.06.2013 23:00 12,5 C 79 % 1016,9 hPa 0,0 l/m 0,0 km/h S-SO 9,0 C 12,5 C 0,0 km/h
12.06.2013 00:00 11,9 C 81 % 1017,2 hPa 0,0 l/m 0,0 km/h O-NO 8,7 C 11,9 C 0,0 km/h
12.06.2013 01:00 11,4 C 82 % 1017,3 hPa 0,0 l/m 0,0 km/h S 8,4 C 11,4 C 0,0 km/h
12.06.2013 02:00 10,9 C 83 % 1017,6 hPa 0,0 l/m 0,0 km/h S 8,1 C 10,9 C 0,0 km/h
12.06.2013 03:00 11,2 C 83 % 1017,7 hPa 0,0 l/m 0,0 km/h S-SO 8,4 C 11,2 C 0,0 km/h
12.06.2013 04:00 11,9 C 83 % 1017,1 hPa 0,0 l/m 0,0 km/h S-SO 9,1 C 11,9 C 0,0 km/h
12.06.2013 05:00 12,2 C 83 % 1017,4 hPa 0,0 l/m 3,2 km/h S 9,4 C 12,2 C 1,8 km/h
12.06.2013 06:00 12,6 C 83 % 1017,2 hPa 0,0 l/m 0,0 km/h S-SO 9,8 C 12,6 C 0,0 km/h
12.06.2013 07:00 14,3 C 82 % 1017,9 hPa 0,0 l/m 0,0 km/h S-SO 11,3 C 14,3 C 0,0 km/h
12.06.2013 08:00 22,1 C 63 % 1018,3 hPa 0,0 l/m 2,6 km/h S 14,7 C 22,1 C 1,4 km/h
12.06.2013 09:00 20,8 C 65 % 1018,3 hPa 0,0 l/m 4,5 km/h W-NW 14,0 C 20,8 C 2,5 km/h
12.06.2013 10:00 26,9 C 51 % 1018,5 hPa 0,0 l/m 11,0 km/h N-NW 15,9 C 26,1 C 6,1 km/h
12.06.2013 11:00 26,7 C 50 % 1018,6 hPa 0,0 l/m 6,5 km/h W 15,4 C 26,7 C 3,6 km/h
12.06.2013 12:00 25,3 C 53 % 1018,3 hPa 0,0 l/m 9,1 km/h N-NW 15,0 C 24,7 C 5,0 km/h
12.06.2013 13:00 26,6 C 46 % 1018,0 hPa 0,0 l/m 27,2 km/h W 14,0 C 24,2 C 15,1 km/h
12.06.2013 14:00 27,7 C 45 % 1017,8 hPa 0,0 l/m 5,8 km/h NW 14,7 C 27,7 C 3,2 km/h
12.06.2013 15:00 28,8 C 39 % 1017,5 hPa 0,0 l/m 22,7 km/h W-NW 13,4 C 27,4 C 12,6 km/h
12.06.2013 16:00 30,2 C 39 % 1017,3 hPa 0,0 l/m 10,4 km/h N-NW 14,7 C 29,9 C 5,8 km/h
12.06.2013 17:00 31,9 C 36 % 1017,3 hPa 0,0 l/m 1,9 km/h W-NW 14,9 C 31,9 C 1,1 km/h
12.06.2013 18:00 24,9 C 51 % 1017,1 hPa 0,0 l/m 0,0 km/h NW 14,1 C 24,9 C 0,0 km/h
12.06.2013 19:00 26,2 C 48 % 1017,2 hPa 0,0 l/m 1,9 km/h SW 14,3 C 26,2 C 1,1 km/h
12.06.2013 20:00 22,6 C 58 % 1017,2 hPa 0,0 l/m 7,8 km/h O-NO 13,9 C 22,1 C 4,3 km/h
12.06.2013 21:00 19,4 C 70 % 1017,1 hPa 0,0 l/m 0,0 km/h O-NO 13,8 C 19,4 C 0,0 km/h
12.06.2013 22:00 17,1 C 78 % 1017,6 hPa 0,0 l/m 0,0 km/h O 13,2 C 17,1 C 0,0 km/h
12.06.2013 23:00 15,8 C 80 % 1017,5 hPa 0,0 l/m 0,0 km/h S-SO 12,4 C 15,8 C 0,0 km/h
13.06.2013 00:00 14,6 C 82 % 1017,6 hPa 0,0 l/m 0,0 km/h S-SO 11,6 C 14,6 C 0,0 km/h
13.06.2013 01:00 14,2 C 82 % 1017,7 hPa 0,0 l/m 0,0 km/h S 11,2 C 14,2 C 0,0 km/h
13.06.2013 02:00 13,9 C 82 % 1017,5 hPa 0,0 l/m 0,0 km/h S-SO 10,9 C 13,9 C 0,0 km/h
13.06.2013 03:00 13,6 C 82 % 1017,1 hPa 0,0 l/m 0,0 km/h S-SO 10,6 C 13,6 C 0,0 km/h
13.06.2013 04:00 13,2 C 81 % 1017,1 hPa 0,0 l/m 0,0 km/h SO 10,0 C 13,2 C 0,0 km/h
13.06.2013 05:00 12,7 C 81 % 1017,0 hPa 0,0 l/m 0,0 km/h S-SO 9,5 C 12,7 C 0,0 km/h
13.06.2013 06:00 12,9 C 79 % 1017,1 hPa 0,0 l/m 0,0 km/h S-SO 9,3 C 12,9 C 0,0 km/h
13.06.2013 07:00 15,5 C 76 % 1017,1 hPa 0,0 l/m 2,6 km/h S 11,3 C 15,5 C 1,4 km/h
13.06.2013 08:00 25,6 C 62 % 1017,0 hPa 0,0 l/m 0,0 km/h NW 17,8 C 25,6 C 0,0 km/h
13.06.2013 09:00 30,3 C 48 % 1016,8 hPa 0,0 l/m 5,8 km/h NO 18,0 C 30,3 C 3,2 km/h
13.06.2013 10:00 29,8 C 48 % 1016,2 hPa 0,0 l/m 0,0 km/h NW 17,6 C 29,8 C 0,0 km/h
13.06.2013 11:00 30,5 C 47 % 1015,7 hPa 0,0 l/m 14,9 km/h N-NW 17,9 C 30,0 C 8,3 km/h
13.06.2013 12:00 28,9 C 49 % 1015,0 hPa 0,0 l/m 6,5 km/h NW 17,1 C 28,9 C 3,6 km/h
13.06.2013 13:00 29,5 C 50 % 1014,2 hPa 0,0 l/m 3,2 km/h SO 18,0 C 29,5 C 1,8 km/h
13.06.2013 14:00 30,5 C 47 % 1013,5 hPa 0,0 l/m 0,0 km/h W-NW 17,9 C 30,5 C 0,0 km/h
13.06.2013 15:00 32,3 C 40 % 1012,9 hPa 0,0 l/m 11,0 km/h W-SW 16,9 C 32,2 C 6,1 km/h
13.06.2013 16:00 34,9 C 34 % 1012,1 hPa 0,0 l/m 11,0 km/h N-NW 16,7 C 34,9 C 6,1 km/h
13.06.2013 17:00 35,1 C 33 % 1011,3 hPa 0,0 l/m 14,9 km/h W 16,4 C 35,1 C 8,3 km/h
13.06.2013 18:00 32,9 C 41 % 1010,8 hPa 0,0 l/m 11,7 km/h W 17,9 C 32,9 C 6,5 km/h
13.06.2013 19:00 29,0 C 45 % 1010,6 hPa 0,0 l/m 19,4 km/h N-NW 15,8 C 27,9 C 10,8 km/h
13.06.2013 20:00 22,8 C 61 % 1013,1 hPa 0,0 l/m 18,1 km/h N 14,9 C 20,1 C 10,1 km/h
13.06.2013 21:00 17,8 C 64 % 1017,0 hPa 0,0 l/m 3,9 km/h NO 10,9 C 17,8 C 2,2 km/h
13.06.2013 22:00 14,2 C 79 % 1018,0 hPa 2,1 l/m 0,0 km/h S 10,6 C 14,2 C 0,0 km/h
13.06.2013 23:00 14,1 C 82 % 1018,7 hPa 1,0 l/m 0,0 km/h W-NW 11,1 C 14,1 C 0,0 km/h
14.06.2013 00:00 14,1 C 80 % 1019,0 hPa 0,5 l/m 7,8 km/h W 10,7 C 13,3 C 4,3 km/h
14.06.2013 01:00 13,7 C 78 % 1019,8 hPa 4,1 l/m 14,3 km/h O-NO 9,9 C 9,9 C 7,9 km/h
14.06.2013 02:00 13,3 C 77 % 1020,2 hPa 3,1 l/m 0,0 km/h NO 9,4 C 13,3 C 0,0 km/h
14.06.2013 03:00 12,6 C 77 % 1020,2 hPa 1,0 l/m 0,0 km/h NO 8,7 C 12,6 C 0,0 km/h
14.06.2013 04:00 12,4 C 78 % 1020,5 hPa 0,0 l/m 0,0 km/h NO 8,7 C 12,4 C 0,0 km/h
14.06.2013 05:00 12,1 C 79 % 1020,7 hPa 0,0 l/m 0,0 km/h NO 8,6 C 12,1 C 0,0 km/h
14.06.2013 06:00 11,5 C 80 % 1020,7 hPa 0,0 l/m 0,0 km/h NO 8,2 C 11,5 C 0,0 km/h
14.06.2013 07:00 12,9 C 77 % 1020,7 hPa 0,0 l/m 0,0 km/h O-NO 9,0 C 12,9 C 0,0 km/h
14.06.2013 08:00 21,9 C 64 % 1020,4 hPa 0,0 l/m 0,0 km/h S-SW 14,8 C 21,9 C 0,0 km/h
14.06.2013 09:00 22,8 C 58 % 1019,9 hPa 0,0 l/m 0,0 km/h N-NW 14,1 C 22,8 C 0,0 km/h
14.06.2013 10:00 20,0 C 58 % 1019,3 hPa 0,0 l/m 0,0 km/h NO 11,5 C 20,0 C 0,0 km/h
14.06.2013 11:00 23,4 C 52 % 1018,5 hPa 0,0 l/m 0,0 km/h S 13,0 C 23,4 C 0,0 km/h
14.06.2013 12:00 23,5 C 51 % 1018,0 hPa 0,0 l/m 9,1 km/h W 12,8 C 22,7 C 5,0 km/h
14.06.2013 13:00 23,5 C 51 % 1017,4 hPa 0,0 l/m 0,0 km/h N-NW 12,8 C 23,5 C 0,0 km/h
14.06.2013 14:00 21,5 C 55 % 1016,8 hPa 0,0 l/m 3,9 km/h N 12,1 C 21,5 C 2,2 km/h
14.06.2013 15:00 22,3 C 54 % 1016,3 hPa 0,0 l/m 0,0 km/h NO 12,5 C 22,3 C 0,0 km/h
14.06.2013 16:00 23,3 C 52 % 1015,6 hPa 0,0 l/m 0,0 km/h O-NO 12,9 C 23,3 C 0,0 km/h
14.06.2013 17:00 21,3 C 56 % 1015,6 hPa 0,0 l/m 1,3 km/h N-NO 12,2 C 21,3 C 0,7 km/h
14.06.2013 18:00 19,8 C 62 % 1015,4 hPa 0,0 l/m 0,0 km/h N-NW 12,3 C 19,8 C 0,0 km/h
14.06.2013 19:00 20,1 C 64 % 1014,9 hPa 0,0 l/m 0,0 km/h W 13,1 C 20,1 C 0,0 km/h
14.06.2013 20:00 18,9 C 68 % 1015,4 hPa 0,0 l/m 0,0 km/h S-SW 12,9 C 18,9 C 0,0 km/h
14.06.2013 21:00 16,9 C 75 % 1014,9 hPa 0,0 l/m 0,0 km/h S-SO 12,4 C 16,9 C 0,0 km/h
14.06.2013 22:00 14,4 C 80 % 1014,9 hPa 0,0 l/m 0,0 km/h SO 11,0 C 14,4 C 0,0 km/h
14.06.2013 23:00 13,3 C 82 % 1014,7 hPa 0,0 l/m 0,0 km/h SO 10,3 C 13,3 C 0,0 km/h
15.06.2013 00:00 12,4 C 82 % 1014,7 hPa 0,0 l/m 0,0 km/h SO 9,4 C 12,4 C 0,0 km/h
15.06.2013 01:00 12,1 C 82 % 1014,1 hPa 0,0 l/m 0,0 km/h SO 9,1 C 12,1 C 0,0 km/h
15.06.2013 02:00 11,3 C 81 % 1014,0 hPa 0,0 l/m 0,0 km/h S-SO 8,2 C 11,3 C 0,0 km/h
15.06.2013 03:00 10,5 C 81 % 1013,9 hPa 0,0 l/m 0,0 km/h S-SO 7,4 C 10,5 C 0,0 km/h
15.06.2013 04:00 10,3 C 79 % 1013,5 hPa 0,0 l/m 0,0 km/h S-SO 6,8 C 10,3 C 0,0 km/h
15.06.2013 05:00 9,9 C 78 % 1013,6 hPa 0,0 l/m 0,0 km/h S-SO 6,2 C 9,9 C 0,0 km/h
15.06.2013 06:00 10,9 C 75 % 1013,7 hPa 0,0 l/m 0,0 km/h S-SO 6,6 C 10,9 C 0,0 km/h
15.06.2013 07:00 12,8 C 72 % 1013,6 hPa 0,0 l/m 0,0 km/h S-SO 7,9 C 12,8 C 0,0 km/h
15.06.2013 08:00 14,5 C 70 % 1013,6 hPa 0,0 l/m 1,3 km/h S-SO 9,1 C 14,5 C 0,7 km/h
15.06.2013 09:00 17,9 C 82 % 1013,8 hPa 0,0 l/m 0,0 km/h S-SW 14,8 C 17,9 C 0,0 km/h
15.06.2013 10:00 20,8 C 76 % 1013,8 hPa 0,0 l/m 0,0 km/h W-NW 16,4 C 20,8 C 0,0 km/h
15.06.2013 11:00 24,4 C 61 % 1013,8 hPa 0,0 l/m 40,8 km/h W 16,4 C 20,2 C 22,7 km/h
15.06.2013 12:00 24,4 C 61 % 1014,1 hPa 0,0 l/m 18,8 km/h W 16,4 C 22,0 C 10,4 km/h
15.06.2013 13:00 25,0 C 53 % 1013,9 hPa 0,0 l/m 21,4 km/h W-NW 14,7 C 22,5 C 11,9 km/h
15.06.2013 14:00 26,3 C 49 % 1013,5 hPa 0,0 l/m 31,1 km/h NW 14,7 C 23,5 C 17,3 km/h
15.06.2013 15:00 27,1 C 47 % 1013,3 hPa 0,0 l/m 21,4 km/h NW 14,8 C 25,3 C 11,9 km/h
15.06.2013 16:00 27,8 C 42 % 1013,1 hPa 0,0 l/m 33,7 km/h NW 13,7 C 25,5 C 18,7 km/h
15.06.2013 17:00 25,3 C 47 % 1013,1 hPa 0,0 l/m 22,0 km/h W 13,2 C 22,8 C 12,2 km/h
15.06.2013 18:00 26,3 C 44 % 1013,3 hPa 0,0 l/m 21,4 km/h W-NW 13,1 C 24,2 C 11,9 km/h
15.06.2013 19:00 23,6 C 52 % 1013,3 hPa 0,0 l/m 14,3 km/h N-NW 13,2 C 21,7 C 7,9 km/h
15.06.2013 20:00 21,3 C 59 % 1013,8 hPa 0,0 l/m 0,0 km/h N-NW 13,0 C 21,3 C 0,0 km/h
15.06.2013 21:00 19,4 C 65 % 1013,8 hPa 0,0 l/m 1,9 km/h O 12,6 C 19,4 C 1,1 km/h
15.06.2013 22:00 17,8 C 69 % 1014,4 hPa 0,0 l/m 0,0 km/h SO 12,0 C 17,8 C 0,0 km/h
15.06.2013 23:00 16,6 C 75 % 1015,1 hPa 0,0 l/m 0,0 km/h SO 12,1 C 16,6 C 0,0 km/h
16.06.2013 00:00 16,2 C 79 % 1015,2 hPa 0,0 l/m 0,0 km/h O-NO 12,6 C 16,2 C 0,0 km/h
16.06.2013 01:00 15,9 C 80 % 1015,4 hPa 0,0 l/m 0,0 km/h S-SO 12,5 C 15,9 C 0,0 km/h
16.06.2013 02:00 15,3 C 81 % 1015,2 hPa 0,0 l/m 0,0 km/h SO 12,1 C 15,3 C 0,0 km/h
16.06.2013 03:00 14,4 C 82 % 1015,4 hPa 0,0 l/m 0,0 km/h S-SO 11,4 C 14,4 C 0,0 km/h
16.06.2013 04:00 12,9 C 82 % 1015,6 hPa 0,0 l/m 0,0 km/h S-SO 9,9 C 12,9 C 0,0 km/h
16.06.2013 05:00 12,3 C 82 % 1015,5 hPa 0,0 l/m 0,0 km/h S 9,3 C 12,3 C 0,0 km/h
16.06.2013 06:00 12,5 C 80 % 1015,6 hPa 0,0 l/m 0,0 km/h SO 9,1 C 12,5 C 0,0 km/h
16.06.2013 07:00 14,6 C 80 % 1016,1 hPa 0,0 l/m 0,0 km/h S 11,2 C 14,6 C 0,0 km/h
16.06.2013 08:00 22,3 C 67 % 1015,6 hPa 0,0 l/m 0,0 km/h W-NW 15,9 C 22,3 C 0,0 km/h
16.06.2013 09:00 27,2 C 49 % 1015,6 hPa 0,0 l/m 0,0 km/h N-NW 15,5 C 27,2 C 0,0 km/h
16.06.2013 10:00 28,1 C 44 % 1015,3 hPa 0,0 l/m 0,0 km/h SW 14,7 C 28,1 C 0,0 km/h
16.06.2013 11:00 28,9 C 40 % 1015,0 hPa 0,0 l/m 0,0 km/h NO 13,9 C 28,9 C 0,0 km/h
16.06.2013 12:00 27,3 C 44 % 1014,4 hPa 0,0 l/m 0,0 km/h W-NW 14,0 C 27,3 C 0,0 km/h
16.06.2013 13:00 27,9 C 45 % 1014,1 hPa 0,0 l/m 0,0 km/h NW 14,8 C 27,9 C 0,0 km/h
16.06.2013 14:00 29,2 C 44 % 1013,2 hPa 0,0 l/m 1,9 km/h W-SW 15,7 C 29,2 C 1,1 km/h
16.06.2013 15:00 31,1 C 41 % 1012,6 hPa 0,0 l/m 0,0 km/h W 16,3 C 31,1 C 0,0 km/h
16.06.2013 16:00 34,7 C 35 % 1012,3 hPa 0,0 l/m 0,0 km/h N-NO 16,9 C 34,7 C 0,0 km/h
16.06.2013 17:00 37,2 C 32 % 1011,9 hPa 0,0 l/m 0,0 km/h N-NO 17,7 C 37,2 C 0,0 km/h
16.06.2013 18:00 36,2 C 32 % 1011,3 hPa 0,0 l/m 0,0 km/h O-SO 16,8 C 36,2 C 0,0 km/h
16.06.2013 19:00 33,8 C 35 % 1011,3 hPa 0,0 l/m 0,0 km/h N 16,2 C 33,8 C 0,0 km/h
16.06.2013 20:00 26,4 C 51 % 1011,0 hPa 0,0 l/m 0,0 km/h S-SO 15,4 C 26,4 C 0,0 km/h
16.06.2013 21:00 21,9 C 67 % 1011,2 hPa 0,0 l/m 0,0 km/h O-SO 15,5 C 21,9 C 0,0 km/h
16.06.2013 22:00 19,5 C 75 % 1011,4 hPa 0,0 l/m 0,0 km/h O 14,9 C 19,5 C 0,0 km/h
16.06.2013 23:00 17,6 C 80 % 1011,6 hPa 0,0 l/m 0,0 km/h O-NO 14,1 C 17,6 C 0,0 km/h
Min-Datum _ 15.06.13 11.06.13 10.06.13 - 10.06.13 - 15.06.13 10.06.13 10.06.13
_ Min-Zeit 05:19 18:19 00:19 - 12:19 - 05:19 05:19 12:19
Minimum _ 9,9 C 29 % 1006,5 hPa - 0,0 km/h - 6,2 C 8,9 C 0,0 km/h
Max-Datum _ 16.06.13 12.06.13 14.06.13 10.06.13 15.06.13 - 13.06.13 16.06.13 15.06.13
_ Max-Zeit 17:19 02:19 05:19 13:19 11:19 - 09:19 17:19 11:19
Maximum _ 37,2 C 83 % 1020,7 hPa 10,9 l/m 40,8 km/h
W
- 18,0 C 37,2 C 22,7 km/h
W
Durchschnitt _ 19,8 C 65 % 1014,7 hPa #34,2 l/m 3,8 km/h S-SO 12,4 C 19,5 C 2,1 km/h
www.sexauwetter.de